createdAt,value
2018-06-09T00:01:48.974Z,100682.66
2018-06-09T00:04:18.717Z,100690.17
2018-06-09T00:06:49.666Z,100689.21
2018-06-09T00:09:19.965Z,100689.59
2018-06-09T00:11:50.722Z,100691.48
2018-06-09T00:14:21.333Z,100685.63
2018-06-09T00:16:51.937Z,100684.42
2018-06-09T00:19:23.021Z,100678.50
2018-06-09T00:21:53.574Z,100676.88
2018-06-09T00:24:23.961Z,100674.32
2018-06-09T00:26:56.026Z,100682.55
2018-06-09T00:29:27.876Z,100677.94
2018-06-09T00:31:57.837Z,100684.81
2018-06-09T00:34:27.807Z,100684.95
2018-06-09T00:37:00.146Z,100678.61
2018-06-09T00:39:30.164Z,100678.97
2018-06-09T00:42:00.972Z,100680.80
2018-06-09T00:44:31.753Z,100679.25
2018-06-09T00:47:01.142Z,100681.34
2018-06-09T00:49:30.898Z,100676.80
2018-06-09T00:52:01.236Z,100679.50
2018-06-09T00:54:32.461Z,100687.30
2018-06-09T00:57:02.606Z,100680.63
2018-06-09T00:59:33.745Z,100684.10
2018-06-09T01:02:05.015Z,100682.33
2018-06-09T01:04:36.096Z,100684.88
2018-06-09T01:07:06.386Z,100678.97
2018-06-09T01:09:37.873Z,100682.51
2018-06-09T01:12:07.799Z,100680.87
2018-06-09T01:14:37.594Z,100679.81
2018-06-09T01:17:09.126Z,100680.91
2018-06-09T01:19:39.375Z,100682.29
2018-06-09T01:22:12.311Z,100684.45
2018-06-09T01:24:42.776Z,100687.08
2018-06-09T01:27:12.983Z,100705.48
2018-06-09T01:29:49.192Z,100697.58
2018-06-09T01:32:19.767Z,100697.03
2018-06-09T01:34:49.500Z,100695.38
2018-06-09T01:37:20.284Z,100696.40
2018-06-09T01:39:50.805Z,100691.23
2018-06-09T01:42:21.317Z,100690.94
2018-06-09T01:44:52.220Z,100695.56
2018-06-09T01:47:22.161Z,100693.96
2018-06-09T01:49:53.266Z,100697.66
2018-06-09T01:52:23.331Z,100694.98
2018-06-09T01:54:53.942Z,100692.36
2018-06-09T01:57:24.040Z,100692.88
2018-06-09T01:59:54.213Z,100686.17
2018-06-09T02:02:25.382Z,100684.04
2018-06-09T02:04:56.193Z,100693.96
2018-06-09T02:07:27.166Z,100690.87
2018-06-09T02:09:58.329Z,100692.02
2018-06-09T02:12:28.282Z,100691.17
2018-06-09T02:14:58.351Z,100690.78
2018-06-09T02:17:28.577Z,100681.31
2018-06-09T02:19:58.637Z,100684.17
2018-06-09T02:22:28.586Z,100689.13
2018-06-09T02:24:59.473Z,100696.06
2018-06-09T02:27:29.182Z,100697.08
2018-06-09T02:29:58.873Z,100698.75
2018-06-09T02:32:29.420Z,100706.78
2018-06-09T02:34:59.116Z,100696.47
2018-06-09T02:37:29.187Z,100701.25
2018-06-09T02:39:58.884Z,100692.70
2018-06-09T02:42:30.178Z,100691.39
2018-06-09T02:44:59.938Z,100690.21
2018-06-09T02:47:29.802Z,100688.05
2018-06-09T02:49:59.487Z,100682.71
2018-06-09T02:52:29.594Z,100685.20
2018-06-09T02:54:59.997Z,100688.14
2018-06-09T02:57:30.431Z,100684.90
2018-06-09T03:00:00.130Z,100685.81
2018-06-09T03:02:31.004Z,100685.98
2018-06-09T03:05:00.705Z,100686.28
2018-06-09T03:07:30.440Z,100688.28
2018-06-09T03:10:00.134Z,100684.58
2018-06-09T03:12:30.538Z,100684.29
2018-06-09T03:15:00.889Z,100682.75
2018-06-09T03:17:30.618Z,100688.91
2018-06-09T03:20:00.560Z,100687.53
2018-06-09T03:22:30.299Z,100686.84
2018-06-09T03:25:00.137Z,100693.55
2018-06-09T03:27:30.551Z,100699.23
2018-06-09T03:30:01.897Z,100696.78
2018-06-09T03:32:31.820Z,100699.40
2018-06-09T03:35:01.550Z,100696.48
2018-06-09T03:37:32.972Z,100691.55
2018-06-09T03:40:02.996Z,100699.40
2018-06-09T03:42:33.107Z,100693.70
2018-06-09T03:45:03.201Z,100699.34
2018-06-09T03:47:34.585Z,100701.34
2018-06-09T03:50:05.229Z,100700.39
2018-06-09T03:52:35.013Z,100701.86
2018-06-09T03:55:06.452Z,100695.91
2018-06-09T03:57:36.873Z,100698.69
2018-06-09T04:00:08.077Z,100695.38
2018-06-09T04:02:37.718Z,100696.46
2018-06-09T04:05:08.775Z,100685.00
2018-06-09T04:07:38.773Z,100691.41
2018-06-09T04:10:08.623Z,100688.55
2018-06-09T04:12:38.373Z,100683.94
2018-06-09T04:15:08.080Z,100687.77
2018-06-09T04:17:38.885Z,100690.55
2018-06-09T04:20:09.335Z,100698.95
2018-06-09T04:22:39.625Z,100691.71
2018-06-09T04:25:10.684Z,100690.56
2018-06-09T04:27:41.845Z,100694.95
2018-06-09T04:30:11.805Z,100686.24
2018-06-09T04:32:41.584Z,100687.63
2018-06-09T04:35:11.838Z,100690.25
2018-06-09T04:37:41.193Z,100687.17
2018-06-09T04:43:43.707Z,100694.09
2018-06-09T04:46:14.379Z,100694.33
2018-06-09T04:48:44.343Z,100688.55
2018-06-09T04:51:15.662Z,100689.93
2018-06-09T04:53:46.166Z,100690.46
2018-06-09T04:56:16.746Z,100687.09
2018-06-09T04:58:48.051Z,100690.01
2018-06-09T05:01:18.225Z,100690.60
2018-06-09T05:03:48.436Z,100700.85
2018-06-09T05:06:18.205Z,100688.67
2018-06-09T05:08:48.857Z,100696.23
2018-06-09T05:11:19.626Z,100692.77
2018-06-09T05:13:49.431Z,100693.84
2018-06-09T05:16:19.448Z,100694.87
2018-06-09T05:18:50.147Z,100696.70
2018-06-09T05:21:20.846Z,100689.61
2018-06-09T05:23:50.724Z,100688.34
2018-06-09T05:26:20.457Z,100688.47
2018-06-09T05:28:50.969Z,100692.69
2018-06-09T05:31:20.926Z,100686.91
2018-06-09T05:33:51.365Z,100688.25
2018-06-09T05:36:21.420Z,100690.53
2018-06-09T05:38:51.067Z,100688.66
2018-06-09T05:41:21.699Z,100688.48
2018-06-09T05:43:51.884Z,100685.63
2018-06-09T05:46:22.142Z,100699.24
2018-06-09T05:48:53.113Z,100686.04
2018-06-09T05:51:23.073Z,100691.40
2018-06-09T05:53:53.316Z,100698.92
2018-06-09T05:56:23.543Z,100697.89
2018-06-09T05:58:54.977Z,100693.77
2018-06-09T06:01:24.930Z,100696.81
2018-06-09T06:03:55.462Z,100697.45
2018-06-09T06:06:27.200Z,100693.34
2018-06-09T06:08:58.360Z,100679.09
2018-06-09T06:11:28.118Z,100682.51
2018-06-09T06:13:59.860Z,100677.48
2018-06-09T06:16:31.094Z,100681.98
2018-06-09T06:19:01.555Z,100679.36
2018-06-09T06:21:32.005Z,100685.16
2018-06-09T06:24:01.665Z,100691.22
2018-06-09T06:26:31.646Z,100690.31
2018-06-09T06:29:01.421Z,100691.19
2018-06-09T06:31:31.297Z,100681.82
2018-06-09T06:34:01.082Z,100687.15
2018-06-09T06:36:31.654Z,100687.72
2018-06-09T06:39:01.580Z,100687.17
2018-06-09T06:41:31.278Z,100688.41
2018-06-09T06:44:00.999Z,100689.52
2018-06-09T06:46:31.641Z,100692.34
2018-06-09T06:49:03.417Z,100688.69
2018-06-09T06:51:33.512Z,100690.83
2018-06-09T06:54:03.698Z,100688.61
2018-06-09T06:56:33.402Z,100697.52
2018-06-09T06:59:03.053Z,100699.81
2018-06-09T07:01:32.677Z,100697.00
2018-06-09T07:04:02.310Z,100704.23
2018-06-09T07:06:32.269Z,100702.02
2018-06-09T07:09:02.194Z,100699.47
2018-06-09T07:11:33.054Z,100707.73
2018-06-09T07:20:50.998Z,100714.48
2018-06-09T07:23:20.598Z,100715.13
2018-06-09T07:25:50.449Z,100720.39
2018-06-09T07:28:20.175Z,100726.77
2018-06-09T07:30:49.856Z,100722.08
2018-06-09T07:33:19.441Z,100718.66
2018-06-09T07:35:49.145Z,100724.50
2018-06-09T07:38:19.031Z,100715.30
2018-06-09T07:40:49.086Z,100722.36
2018-06-09T07:43:19.187Z,100712.10
2018-06-09T07:45:50.204Z,100715.88
2018-06-09T07:48:20.737Z,100716.05
2018-06-09T07:50:50.836Z,100712.17
2018-06-09T07:53:21.388Z,100722.53
2018-06-09T07:55:52.335Z,100728.89
2018-06-09T07:58:22.349Z,100724.59
2018-06-09T08:00:53.048Z,100722.80
2018-06-09T08:03:22.666Z,100724.20
2018-06-09T08:05:52.528Z,100730.59
2018-06-09T08:08:22.143Z,100730.66
2018-06-09T08:10:52.160Z,100727.82
2018-06-09T08:13:22.315Z,100724.60
2018-06-09T08:15:52.155Z,100726.18
2018-06-09T08:18:22.147Z,100720.27
2018-06-09T08:20:53.166Z,100719.72
2018-06-09T08:23:22.955Z,100716.20
2018-06-09T08:25:52.861Z,100719.74
2018-06-09T08:28:23.428Z,100716.61
2018-06-09T08:30:55.349Z,100721.28
2018-06-09T08:33:25.117Z,100722.39
2018-06-09T08:35:55.022Z,100719.38
2018-06-09T08:38:24.797Z,100716.19
2018-06-09T08:40:54.473Z,100718.53
2018-06-09T08:43:24.717Z,100725.33
2018-06-09T08:45:54.958Z,100724.09
2018-06-09T08:48:26.106Z,100723.45
2018-06-09T08:50:58.209Z,100716.44
2018-06-09T08:53:29.756Z,100729.74
2018-06-09T08:56:01.826Z,100719.19
2018-06-09T08:58:32.198Z,100726.24
2018-06-09T09:01:04.542Z,100722.29
2018-06-09T09:03:34.430Z,100719.22
2018-06-09T09:06:04.642Z,100727.71
2018-06-09T09:08:35.059Z,100715.32
2018-06-09T09:11:04.752Z,100715.52
2018-06-09T09:13:34.803Z,100713.29
2018-06-09T09:16:04.548Z,100711.16
2018-06-09T09:18:35.196Z,100719.38
2018-06-09T09:21:06.123Z,100714.95
2018-06-09T09:23:35.769Z,100707.11
2018-06-09T09:26:05.489Z,100707.19
2018-06-09T09:28:35.388Z,100702.11
2018-06-09T09:31:05.216Z,100699.16
2018-06-09T09:33:36.247Z,100699.83
2018-06-09T09:36:06.338Z,100698.52
2018-06-09T09:38:36.400Z,100704.94
2018-06-09T09:41:06.667Z,100700.41
2018-06-09T09:43:37.492Z,100698.29
2018-06-09T09:46:08.966Z,100703.44
2018-06-09T09:48:40.098Z,100696.59
2018-06-09T09:51:12.291Z,100700.72
2018-06-09T09:53:43.135Z,100692.22
2018-06-09T09:56:14.001Z,100681.31
2018-06-09T09:58:44.488Z,100682.89
2018-06-09T10:01:19.442Z,100673.02
2018-06-09T10:03:49.256Z,100675.91
2018-06-09T10:06:18.974Z,100669.28
2018-06-09T10:08:49.898Z,100670.73
2018-06-09T10:11:19.897Z,100672.89
2018-06-09T10:13:51.767Z,100664.23
2018-06-09T10:16:21.801Z,100666.28
2018-06-09T10:18:52.298Z,100665.20
2018-06-09T10:21:22.205Z,100656.78
2018-06-09T10:23:53.416Z,100661.07
2018-06-09T10:26:24.020Z,100650.83
2018-06-09T10:28:54.682Z,100651.06
2018-06-09T10:31:25.148Z,100648.93
2018-06-09T10:33:55.205Z,100651.69
2018-06-09T10:36:25.095Z,100645.19
2018-06-09T10:38:55.264Z,100644.30
2018-06-09T10:41:24.987Z,100649.83
2018-06-09T10:43:54.853Z,100645.96
2018-06-09T10:46:25.178Z,100649.75
2018-06-09T10:48:54.947Z,100647.46
2018-06-09T10:51:24.982Z,100650.28
2018-06-09T10:53:54.962Z,100648.09
2018-06-09T10:56:25.674Z,100648.61
2018-06-09T10:58:55.667Z,100647.88
2018-06-09T11:01:25.659Z,100646.93
2018-06-09T11:03:56.702Z,100641.02
2018-06-09T11:06:26.428Z,100641.58
2018-06-09T11:08:56.194Z,100651.27
2018-06-09T11:11:25.919Z,100643.05
2018-06-09T11:13:57.769Z,100651.86
2018-06-09T11:16:28.321Z,100652.91
2018-06-09T11:19:03.492Z,100652.90
2018-06-09T11:21:34.533Z,100657.92
2018-06-09T11:24:04.956Z,100656.06
2018-06-09T11:26:34.622Z,100651.31
2018-06-09T11:29:05.441Z,100643.54
2018-06-09T11:31:35.238Z,100648.28
2018-06-09T11:34:05.280Z,100646.13
2018-06-09T11:36:35.264Z,100647.34
2018-06-09T11:39:08.109Z,100638.18
2018-06-09T11:41:38.576Z,100634.56
2018-06-09T11:44:08.578Z,100636.27
2018-06-09T11:46:38.862Z,100634.73
2018-06-09T11:53:46.407Z,100629.06
2018-06-09T11:56:17.220Z,100625.67
2018-06-09T11:58:46.948Z,100622.66
2018-06-09T12:01:16.729Z,100618.55
2018-06-09T12:03:46.550Z,100611.62
2018-06-09T12:06:16.302Z,100604.78
2018-06-09T12:08:46.461Z,100614.20
2018-06-09T12:11:16.220Z,100616.16
2018-06-09T12:13:45.941Z,100605.62
2018-06-09T12:16:15.543Z,100610.26
2018-06-09T12:18:46.270Z,100601.69
2018-06-09T12:21:16.621Z,100592.52
2018-06-09T12:23:46.305Z,100590.95
2018-06-09T12:26:16.177Z,100592.03
2018-06-09T12:28:47.416Z,100589.73
2018-06-09T12:31:17.343Z,100589.83
2018-06-09T12:33:47.613Z,100576.18
2018-06-09T12:36:17.455Z,100574.56
2018-06-09T12:38:47.136Z,100570.67
2018-06-09T12:41:16.841Z,100563.61
2018-06-09T12:43:47.538Z,100564.02
2018-06-09T12:46:17.223Z,100565.61
2018-06-09T12:48:46.948Z,100560.77
2018-06-09T12:51:16.639Z,100552.90
2018-06-09T12:53:46.496Z,100549.22
2018-06-09T12:56:16.749Z,100554.05
2018-06-09T12:58:47.516Z,100546.97
2018-06-09T13:01:18.341Z,100539.94
2018-06-09T13:03:49.529Z,100536.38
2018-06-09T13:06:19.505Z,100543.47
2018-06-09T13:08:49.423Z,100532.16
2018-06-09T13:11:19.272Z,100534.42
2018-06-09T13:13:50.027Z,100534.22
2018-06-09T13:16:19.905Z,100538.66
2018-06-09T13:18:52.515Z,100529.66
2018-06-09T13:21:24.042Z,100532.95
2018-06-09T13:23:56.472Z,100528.69
2018-06-09T13:26:31.144Z,100529.40
2018-06-09T13:29:00.835Z,100528.85
2018-06-09T13:31:31.430Z,100533.42
2018-06-09T13:34:02.058Z,100526.56
2018-06-09T13:36:32.835Z,100526.33
2018-06-09T13:39:03.262Z,100526.85
2018-06-09T13:41:34.727Z,100529.23
2018-06-09T13:44:04.869Z,100522.75
2018-06-09T13:46:35.034Z,100523.34
2018-06-09T13:49:05.996Z,100512.45
2018-06-09T13:51:36.861Z,100507.98
2018-06-09T13:54:07.152Z,100509.48
2018-06-09T13:56:38.438Z,100508.20
2018-06-09T13:59:11.155Z,100511.41
2018-06-09T14:01:41.904Z,100508.20
2018-06-09T14:04:13.740Z,100496.75
2018-06-09T14:06:44.061Z,100497.63
2018-06-09T14:09:13.631Z,100497.78
2018-06-09T14:11:43.383Z,100498.15
2018-06-09T14:14:14.905Z,100491.61
2018-06-09T14:16:45.491Z,100483.19
2018-06-09T14:19:16.157Z,100489.31
2018-06-09T14:21:46.395Z,100489.22
2018-06-09T14:24:16.260Z,100488.84
2018-06-09T14:26:47.459Z,100489.73
2018-06-09T14:29:17.579Z,100482.13
2018-06-09T14:31:50.207Z,100484.11
2018-06-09T14:34:20.330Z,100471.95
2018-06-09T14:36:50.691Z,100475.33
2018-06-09T14:39:22.082Z,100473.68
2018-06-09T14:41:56.191Z,100471.18
2018-06-09T14:44:27.206Z,100474.21
2018-06-09T14:46:56.880Z,100465.72
2018-06-09T14:49:26.964Z,100464.86
2018-06-09T14:51:57.645Z,100457.67
2018-06-09T14:54:28.364Z,100459.70
2018-06-09T14:56:58.272Z,100460.59
2018-06-09T14:59:31.548Z,100462.84
2018-06-09T15:02:02.390Z,100469.35
2018-06-09T15:04:33.034Z,100473.50
2018-06-09T15:07:02.663Z,100470.69
2018-06-09T15:09:34.155Z,100471.16
2018-06-09T15:12:04.003Z,100463.70
2018-06-09T15:14:33.752Z,100462.94
2018-06-09T15:17:05.603Z,100466.05
2018-06-09T15:19:36.243Z,100462.61
2018-06-09T15:22:06.534Z,100466.95
2018-06-09T15:24:36.215Z,100466.46
2018-06-09T15:27:05.799Z,100461.55
2018-06-09T15:29:36.062Z,100469.56
2018-06-09T15:33:34.816Z,100465.67
2018-06-09T15:36:04.528Z,100469.20
2018-06-09T15:38:35.287Z,100469.84
2018-06-09T15:41:07.668Z,100468.45
2018-06-09T15:43:37.384Z,100469.60
2018-06-09T15:46:07.459Z,100461.06
2018-06-09T15:48:37.885Z,100466.88
2018-06-09T15:51:09.224Z,100467.61
2018-06-09T15:53:39.244Z,100473.45
2018-06-09T15:56:09.368Z,100476.31
2018-06-09T15:58:40.545Z,100479.60
2018-06-09T16:01:10.269Z,100475.18
2018-06-09T16:03:40.114Z,100475.25
2018-06-09T16:06:11.206Z,100474.81
2018-06-09T16:08:41.808Z,100479.91
2018-06-09T16:11:12.695Z,100479.70
2018-06-09T16:13:43.845Z,100488.06
2018-06-09T16:16:15.303Z,100490.69
2018-06-09T16:18:45.112Z,100495.12
2018-06-09T16:21:15.397Z,100498.91
2018-06-09T16:23:46.095Z,100495.34
2018-06-09T16:26:15.787Z,100500.39
2018-06-09T16:28:45.679Z,100496.64
2018-06-09T16:31:16.350Z,100504.87
2018-06-09T16:33:49.454Z,100499.52
2018-06-09T16:36:19.510Z,100499.19
2018-06-09T16:38:50.722Z,100503.56
2018-06-09T16:41:20.375Z,100510.57
2018-06-09T16:43:50.090Z,100513.46
2018-06-09T16:46:19.843Z,100512.36
2018-06-09T16:48:51.526Z,100514.41
2018-06-09T16:51:22.051Z,100524.89
2018-06-09T16:53:51.931Z,100520.81
2018-06-09T16:56:23.757Z,100519.48
2018-06-09T16:58:53.475Z,100516.25
2018-06-09T17:01:24.781Z,100514.92
2018-06-09T17:03:54.485Z,100510.11
2018-06-09T17:06:25.735Z,100513.12
2018-06-09T17:08:55.457Z,100509.52
2018-06-09T17:11:26.488Z,100502.06
2018-06-09T17:14:01.606Z,100502.31
2018-06-09T17:16:33.448Z,100497.13
2018-06-09T17:19:04.044Z,100500.39
2018-06-09T17:21:34.759Z,100492.47
2018-06-09T17:24:05.217Z,100489.93
2018-06-09T17:26:34.849Z,100489.33
2018-06-09T17:29:05.311Z,100488.63
2018-06-09T17:31:37.636Z,100485.37
2018-06-09T17:34:10.010Z,100484.64
2018-06-09T17:36:39.844Z,100480.94
2018-06-09T17:39:10.072Z,100483.81
2018-06-09T17:41:41.605Z,100484.28
2018-06-09T17:44:11.842Z,100483.58
2018-06-09T17:46:43.187Z,100490.67
2018-06-09T17:49:13.998Z,100494.97
2018-06-09T17:51:44.312Z,100501.58
2018-06-09T17:54:14.309Z,100500.27
2018-06-09T17:56:44.393Z,100501.25
2018-06-09T17:59:14.276Z,100500.88
2018-06-09T18:01:44.033Z,100504.95
2018-06-09T18:04:14.649Z,100505.45
2018-06-09T18:06:45.394Z,100504.47
2018-06-09T18:09:15.388Z,100507.59
2018-06-09T18:11:45.095Z,100511.55
2018-06-09T18:14:14.426Z,100518.88
2018-06-09T18:16:45.835Z,100516.38
2018-06-09T18:19:16.168Z,100519.88
2018-06-09T18:21:46.705Z,100512.06
2018-06-09T18:24:16.462Z,100522.02
2018-06-09T18:26:46.608Z,100515.18
2018-06-09T18:29:17.442Z,100513.38
2018-06-09T18:31:47.171Z,100516.25
2018-06-09T18:34:17.346Z,100519.14
2018-06-09T18:36:48.203Z,100518.67
2018-06-09T18:39:18.768Z,100521.52
2018-06-09T18:41:50.043Z,100523.90
2018-06-09T18:44:20.835Z,100528.02
2018-06-09T18:46:51.493Z,100528.50
2018-06-09T18:49:21.557Z,100527.66
2018-06-09T18:51:53.009Z,100524.64
2018-06-09T18:54:23.315Z,100521.39
2018-06-09T18:56:53.146Z,100524.14
2018-06-09T18:59:24.676Z,100528.21
2018-06-09T19:01:55.489Z,100520.19
2018-06-09T19:04:25.538Z,100522.94
2018-06-09T19:06:56.501Z,100520.98
2018-06-09T19:09:26.130Z,100521.36
2018-06-09T19:11:58.465Z,100520.02
2018-06-09T19:14:28.731Z,100521.20
2018-06-09T19:17:00.385Z,100526.12
2018-06-09T19:19:32.273Z,100529.47
2018-06-09T19:22:03.365Z,100535.94
2018-06-09T19:24:34.180Z,100541.59
2018-06-09T19:27:04.715Z,100540.23
2018-06-09T19:29:35.145Z,100547.03
2018-06-09T19:32:05.195Z,100548.21
2018-06-09T19:34:35.635Z,100552.27
2018-06-09T19:37:06.884Z,100551.75
2018-06-09T19:39:37.925Z,100556.03
2018-06-09T19:42:07.673Z,100566.09
2018-06-09T19:44:38.424Z,100571.24
2018-06-09T19:47:08.938Z,100576.89
2018-06-09T19:49:39.314Z,100570.77
2018-06-09T19:52:08.983Z,100579.63
2018-06-09T19:54:40.220Z,100572.55
2018-06-09T19:57:11.951Z,100566.52
2018-06-09T19:59:42.120Z,100563.64
2018-06-09T20:02:12.186Z,100561.93
2018-06-09T20:04:42.470Z,100567.38
2018-06-09T20:07:12.744Z,100559.92
2018-06-09T20:09:43.850Z,100566.93
2018-06-09T20:12:15.008Z,100562.20
2018-06-09T20:14:46.560Z,100565.63
2018-06-09T20:17:17.020Z,100556.72
2018-06-09T20:19:47.271Z,100559.70
2018-06-09T20:22:18.684Z,100563.13
2018-06-09T20:24:49.339Z,100569.19
2018-06-09T20:27:19.526Z,100568.56
2018-06-09T20:29:50.912Z,100578.47
2018-06-09T20:32:22.548Z,100577.84
2018-06-09T20:34:52.834Z,100579.28
2018-06-09T20:37:22.993Z,100577.34
2018-06-09T20:39:54.924Z,100581.00
2018-06-09T20:42:24.694Z,100583.92
2018-06-09T20:44:54.019Z,100589.20
2018-06-09T20:47:24.279Z,100589.37
2018-06-09T20:49:56.227Z,100593.45
2018-06-09T20:52:26.970Z,100594.36
2018-06-09T20:54:57.735Z,100582.83
2018-06-09T20:57:29.446Z,100581.26
2018-06-09T21:00:01.718Z,100587.84
2018-06-09T21:02:32.364Z,100585.00
2018-06-09T21:05:02.673Z,100585.55
2018-06-09T21:07:32.447Z,100594.05
2018-06-09T21:10:03.474Z,100596.61
2018-06-09T21:12:34.432Z,100595.97
2018-06-09T21:15:06.540Z,100594.52
2018-06-09T21:17:39.171Z,100594.40
2018-06-09T21:20:13.723Z,100593.46
2018-06-09T21:22:47.047Z,100587.81
2018-06-09T21:25:18.795Z,100592.23
2018-06-09T21:27:55.476Z,100589.17
2018-06-09T21:30:30.746Z,100584.97
2018-06-09T21:33:05.635Z,100582.73
2018-06-09T21:35:56.359Z,100579.63
2018-06-09T21:38:28.669Z,100580.95
2018-06-09T21:41:03.570Z,100579.16
2018-06-09T21:43:44.830Z,100573.26
2018-06-09T21:46:19.722Z,100565.19
2018-06-09T21:48:52.659Z,100578.19
2018-06-09T21:51:23.260Z,100567.69
2018-06-09T21:53:53.559Z,100570.16
2018-06-09T21:56:24.566Z,100573.28
2018-06-09T21:58:54.976Z,100579.02
2018-06-09T22:01:25.356Z,100584.08
2018-06-09T22:03:58.066Z,100575.42
2018-06-09T22:06:28.500Z,100570.02
2018-06-09T22:08:58.826Z,100564.38
2018-06-09T22:11:28.642Z,100556.39
2018-06-09T22:14:02.653Z,100560.46
2018-06-09T22:16:32.357Z,100558.68
2018-06-09T22:19:03.295Z,100561.81
2018-06-09T22:21:34.810Z,100561.63
2018-06-09T22:24:05.253Z,100556.11
2018-06-09T22:26:36.998Z,100558.64
2018-06-09T22:29:08.198Z,100549.65
2018-06-09T22:31:39.583Z,100546.90
2018-06-09T22:34:11.129Z,100549.06
2018-06-09T22:36:40.826Z,100548.42
2018-06-09T22:39:12.672Z,100546.75
2018-06-09T22:41:42.611Z,100544.50
2018-06-09T22:44:14.163Z,100544.03
2018-06-09T22:46:46.411Z,100542.08
2018-06-09T22:49:18.565Z,100541.05
2018-06-09T22:51:49.467Z,100536.58
2018-06-09T22:54:21.082Z,100539.20
2018-06-09T22:56:52.292Z,100533.00
2018-06-09T22:59:22.720Z,100523.91
2018-06-09T23:01:53.884Z,100520.82
2018-06-09T23:04:23.644Z,100526.08
2018-06-09T23:06:53.472Z,100524.30
2018-06-09T23:09:24.873Z,100532.70
2018-06-09T23:11:57.544Z,100550.19
2018-06-09T23:14:32.773Z,100549.45
2018-06-09T23:17:02.640Z,100548.91
2018-06-09T23:19:32.407Z,100534.55
2018-06-09T23:22:02.772Z,100528.74
2018-06-09T23:24:33.637Z,100528.73
2018-06-09T23:27:04.012Z,100522.23
2018-06-09T23:29:34.523Z,100531.22
2018-06-09T23:32:05.463Z,100528.06
2018-06-09T23:34:35.938Z,100529.02
2018-06-09T23:37:05.732Z,100523.12
2018-06-09T23:39:35.380Z,100523.58
2018-06-09T23:42:05.553Z,100522.81
2018-06-09T23:44:35.422Z,100518.59
2018-06-09T23:47:05.700Z,100520.30
2018-06-09T23:49:39.136Z,100518.34
2018-06-09T23:52:10.050Z,100514.13
2018-06-09T23:54:44.202Z,100523.12
2018-06-09T23:57:16.641Z,100525.74
2018-06-09T23:59:47.330Z,100526.09
